createdAt,value
2018-06-23T00:00:26.053Z,0.00
2018-06-23T00:01:25.997Z,0.00
2018-06-23T00:02:26.023Z,0.00
2018-06-23T00:03:25.965Z,0.00
2018-06-23T00:04:25.960Z,0.00
2018-06-23T00:05:25.949Z,0.00
2018-06-23T00:06:25.905Z,0.00
2018-06-23T00:07:25.898Z,0.00
2018-06-23T00:08:25.888Z,0.00
2018-06-23T00:09:25.859Z,0.00
2018-06-23T00:10:25.815Z,0.00
2018-06-23T00:11:25.863Z,0.00
2018-06-23T00:12:25.780Z,0.00
2018-06-23T00:13:25.770Z,0.00
2018-06-23T00:14:25.738Z,0.00
2018-06-23T00:15:25.776Z,0.00
2018-06-23T00:16:25.703Z,0.00
2018-06-23T00:17:25.683Z,0.00
2018-06-23T00:18:25.663Z,0.00
2018-06-23T00:19:25.662Z,0.00
2018-06-23T00:20:25.632Z,0.00
2018-06-23T00:21:25.617Z,0.00
2018-06-23T00:22:25.626Z,0.00
2018-06-23T00:23:25.593Z,0.00
2018-06-23T00:24:25.543Z,0.00
2018-06-23T00:25:25.539Z,0.00
2018-06-23T00:26:25.549Z,0.00
2018-06-23T00:27:25.530Z,0.00
2018-06-23T00:28:25.555Z,0.00
2018-06-23T00:29:25.450Z,0.00
2018-06-23T00:30:25.431Z,0.00
2018-06-23T00:31:25.407Z,0.00
2018-06-23T00:32:25.408Z,0.00
2018-06-23T00:33:25.427Z,0.00
2018-06-23T00:34:25.382Z,0.00
2018-06-23T00:35:25.395Z,0.00
2018-06-23T00:36:25.337Z,0.00
2018-06-23T00:37:25.343Z,0.00
2018-06-23T00:38:25.276Z,0.00
2018-06-23T00:39:25.280Z,0.00
2018-06-23T00:40:25.244Z,0.00
2018-06-23T00:41:25.240Z,0.00
2018-06-23T00:42:25.213Z,0.00
2018-06-23T00:43:25.273Z,0.00
2018-06-23T00:44:25.175Z,0.00
2018-06-23T00:45:25.258Z,0.00
2018-06-23T00:46:25.130Z,0.00
2018-06-23T00:47:25.130Z,0.00
2018-06-23T00:48:25.124Z,0.00
2018-06-23T00:49:25.048Z,0.00
2018-06-23T00:50:25.045Z,0.00
2018-06-23T00:51:25.041Z,0.00
2018-06-23T00:52:24.987Z,0.00
2018-06-23T00:53:24.971Z,0.00
2018-06-23T00:54:24.980Z,0.00
2018-06-23T00:55:24.983Z,0.00
2018-06-23T00:56:24.926Z,0.00
2018-06-23T00:57:24.890Z,0.00
2018-06-23T00:58:24.862Z,0.00
2018-06-23T00:59:24.856Z,0.00
2018-06-23T01:00:24.827Z,0.00
2018-06-23T01:01:24.843Z,0.00
2018-06-23T01:02:24.859Z,0.00
2018-06-23T01:03:24.811Z,0.00
2018-06-23T01:04:24.828Z,0.00
2018-06-23T01:05:24.835Z,0.00
2018-06-23T01:06:24.772Z,0.00
2018-06-23T01:07:24.821Z,0.00
2018-06-23T01:08:24.744Z,0.00
2018-06-23T01:09:24.832Z,0.00
2018-06-23T01:10:24.847Z,0.00
2018-06-23T01:11:24.658Z,0.00
2018-06-23T01:12:24.732Z,0.00
2018-06-23T01:13:24.617Z,0.00
2018-06-23T01:14:24.650Z,0.00
2018-06-23T01:15:24.649Z,0.00
2018-06-23T01:16:24.556Z,0.00
2018-06-23T01:17:24.556Z,0.00
2018-06-23T01:18:24.566Z,0.00
2018-06-23T01:19:24.575Z,0.00
2018-06-23T01:20:24.562Z,0.00
2018-06-23T01:21:24.453Z,0.00
2018-06-23T01:22:24.467Z,0.00
2018-06-23T01:23:24.435Z,0.00
2018-06-23T01:24:24.345Z,0.00
2018-06-23T01:25:24.404Z,0.00
2018-06-23T01:26:24.432Z,0.00
2018-06-23T01:27:24.349Z,0.00
2018-06-23T01:28:24.304Z,0.00
2018-06-23T01:29:24.310Z,0.00
2018-06-23T01:30:24.300Z,0.00
2018-06-23T01:31:24.275Z,0.00
2018-06-23T01:32:24.253Z,0.00
2018-06-23T01:33:24.235Z,0.00
2018-06-23T01:34:24.271Z,0.00
2018-06-23T01:35:24.165Z,0.00
2018-06-23T01:36:24.233Z,0.00
2018-06-23T01:37:24.134Z,0.00
2018-06-23T01:38:24.249Z,0.00
2018-06-23T01:39:24.210Z,0.00
2018-06-23T01:40:24.171Z,0.00
2018-06-23T01:41:24.281Z,0.00
2018-06-23T01:42:24.152Z,0.00
2018-06-23T01:43:24.137Z,0.00
2018-06-23T01:44:24.063Z,0.00
2018-06-23T01:45:23.974Z,0.00
2018-06-23T01:46:24.082Z,0.00
2018-06-23T01:47:23.900Z,0.00
2018-06-23T01:48:23.885Z,0.00
2018-06-23T01:49:23.942Z,0.00
2018-06-23T01:50:24.000Z,0.00
2018-06-23T01:51:23.871Z,0.00
2018-06-23T01:52:23.836Z,0.00
2018-06-23T01:53:23.803Z,0.00
2018-06-23T01:54:23.813Z,0.00
2018-06-23T01:55:23.771Z,0.00
2018-06-23T01:56:23.833Z,0.00
2018-06-23T01:57:23.735Z,0.00
2018-06-23T01:58:23.705Z,0.00
2018-06-23T01:59:23.681Z,0.00
2018-06-23T02:00:23.727Z,0.00
2018-06-23T02:01:23.698Z,0.00
2018-06-23T02:02:23.627Z,0.00
2018-06-23T02:03:23.614Z,0.00
2018-06-23T02:04:23.657Z,0.00
2018-06-23T02:05:23.511Z,0.00
2018-06-23T02:06:23.498Z,0.00
2018-06-23T02:07:23.504Z,0.00
2018-06-23T02:08:23.444Z,0.00
2018-06-23T02:09:23.530Z,0.00
2018-06-23T02:10:23.433Z,0.00
2018-06-23T02:11:23.399Z,0.00
2018-06-23T02:12:23.395Z,0.00
2018-06-23T02:13:23.370Z,0.00
2018-06-23T02:14:23.350Z,0.00
2018-06-23T02:15:23.422Z,0.00
2018-06-23T02:16:23.351Z,0.00
2018-06-23T02:17:23.351Z,0.00
2018-06-23T02:18:23.303Z,0.00
2018-06-23T02:19:23.271Z,0.00
2018-06-23T02:20:23.256Z,0.00
2018-06-23T02:21:23.184Z,0.00
2018-06-23T02:22:23.233Z,0.00
2018-06-23T02:23:23.162Z,0.00
2018-06-23T02:24:23.281Z,0.00
2018-06-23T02:25:23.146Z,0.00
2018-06-23T02:26:23.079Z,0.00
2018-06-23T02:27:23.066Z,0.00
2018-06-23T02:28:23.076Z,0.00
2018-06-23T02:29:23.026Z,0.00
2018-06-23T02:30:23.014Z,0.00
2018-06-23T02:31:22.982Z,0.00
2018-06-23T02:32:22.986Z,0.00
2018-06-23T02:33:22.932Z,0.00
2018-06-23T02:34:22.951Z,0.00
2018-06-23T02:35:22.972Z,0.00
2018-06-23T02:36:22.950Z,4.00
2018-06-23T02:37:22.868Z,4.00
2018-06-23T02:38:23.035Z,4.00
2018-06-23T02:39:22.868Z,0.00
2018-06-23T02:40:22.870Z,4.00
2018-06-23T02:41:22.802Z,4.00
2018-06-23T02:42:22.772Z,8.00
2018-06-23T02:43:22.776Z,4.00
2018-06-23T02:44:22.741Z,8.00
2018-06-23T02:45:22.744Z,4.00
2018-06-23T02:46:22.674Z,8.00
2018-06-23T02:47:22.664Z,12.00
2018-06-23T02:48:22.654Z,8.00
2018-06-23T02:49:22.671Z,8.00
2018-06-23T02:50:22.628Z,12.00
2018-06-23T02:51:22.616Z,12.00
2018-06-23T02:52:22.587Z,16.00
2018-06-23T02:53:22.629Z,16.00
2018-06-23T02:54:22.581Z,20.00
2018-06-23T02:55:22.526Z,24.00
2018-06-23T02:56:22.460Z,24.00
2018-06-23T02:57:22.451Z,32.00
2018-06-23T02:58:22.431Z,32.00
2018-06-23T02:59:22.392Z,36.00
2018-06-23T03:00:22.425Z,40.00
2018-06-23T03:01:22.371Z,48.00
2018-06-23T03:02:22.476Z,48.00
2018-06-23T03:03:22.330Z,56.00
2018-06-23T03:04:22.297Z,60.00
2018-06-23T03:05:22.300Z,72.00
2018-06-23T03:06:22.248Z,76.00
2018-06-23T03:07:22.271Z,84.00
2018-06-23T03:08:22.224Z,92.00
2018-06-23T03:09:22.258Z,100.00
2018-06-23T03:10:22.176Z,112.00
2018-06-23T03:11:22.172Z,120.00
2018-06-23T03:12:22.198Z,132.00
2018-06-23T03:13:22.154Z,140.00
2018-06-23T03:14:22.183Z,152.00
2018-06-23T03:15:22.088Z,168.00
2018-06-23T03:16:22.077Z,180.00
2018-06-23T03:17:22.051Z,196.00
2018-06-23T03:18:22.109Z,212.00
2018-06-23T03:19:22.128Z,232.00
2018-06-23T03:20:22.100Z,252.00
2018-06-23T03:21:21.995Z,276.00
2018-06-23T03:22:22.017Z,300.00
2018-06-23T03:23:21.901Z,328.00
2018-06-23T03:24:21.898Z,356.00
2018-06-23T03:25:21.918Z,392.00
2018-06-23T03:26:21.866Z,432.00
2018-06-23T03:27:21.854Z,476.00
2018-06-23T03:28:21.820Z,528.00
2018-06-23T03:29:21.848Z,580.00
2018-06-23T03:30:21.819Z,644.00
2018-06-23T03:31:21.751Z,704.00
2018-06-23T03:32:21.714Z,764.00
2018-06-23T03:33:21.702Z,824.00
2018-06-23T03:34:21.791Z,880.00
2018-06-23T03:35:21.747Z,952.00
2018-06-23T03:36:21.650Z,1028.00
2018-06-23T03:37:21.686Z,1100.00
2018-06-23T03:38:21.798Z,1196.00
2018-06-23T03:39:21.572Z,1316.00
2018-06-23T03:40:21.598Z,1432.00
2018-06-23T03:41:21.708Z,1512.00
2018-06-23T03:42:21.590Z,1564.00
2018-06-23T03:43:21.534Z,1608.00
2018-06-23T03:44:21.640Z,1640.00
2018-06-23T03:45:21.479Z,1664.00
2018-06-23T03:46:21.444Z,1700.00
2018-06-23T03:47:21.398Z,1756.00
2018-06-23T03:48:21.431Z,1812.00
2018-06-23T03:49:21.392Z,1832.00
2018-06-23T03:50:21.370Z,1820.00
2018-06-23T03:51:21.370Z,1856.00
2018-06-23T03:52:21.334Z,1896.00
2018-06-23T03:53:21.357Z,1884.00
2018-06-23T03:54:21.290Z,1896.00
2018-06-23T03:55:21.306Z,1892.00
2018-06-23T03:56:21.306Z,1912.00
2018-06-23T03:57:21.231Z,1984.00
2018-06-23T03:58:21.237Z,2020.00
2018-06-23T03:59:21.186Z,2088.00
2018-06-23T04:00:21.209Z,2212.00
2018-06-23T04:01:21.138Z,2280.00
2018-06-23T04:02:21.137Z,2248.00
2018-06-23T04:03:21.123Z,2252.00
2018-06-23T04:04:21.062Z,2292.00
2018-06-23T04:05:21.038Z,2356.00
2018-06-23T04:06:21.068Z,2396.00
2018-06-23T04:07:21.029Z,2424.00
2018-06-23T04:08:21.029Z,2488.00
2018-06-23T04:09:21.116Z,2556.00
2018-06-23T04:10:21.035Z,2600.00
2018-06-23T04:11:21.038Z,2636.00
2018-06-23T04:12:21.025Z,2640.00
2018-06-23T04:13:20.926Z,2592.00
2018-06-23T04:14:20.907Z,2464.00
2018-06-23T04:15:20.916Z,2332.00
2018-06-23T04:16:20.833Z,2148.00
2018-06-23T04:17:20.824Z,1984.00
2018-06-23T04:18:20.782Z,1940.00
2018-06-23T04:19:20.769Z,1928.00
2018-06-23T04:20:20.751Z,1912.00
2018-06-23T04:21:20.747Z,1872.00
2018-06-23T04:22:20.702Z,1860.00
2018-06-23T04:23:20.699Z,1876.00
2018-06-23T04:24:20.673Z,1900.00
2018-06-23T04:25:20.651Z,1916.00
2018-06-23T04:26:20.621Z,1960.00
2018-06-23T04:27:20.631Z,1992.00
2018-06-23T04:28:20.617Z,2048.00
2018-06-23T04:29:20.691Z,2088.00
2018-06-23T04:30:20.553Z,2132.00
2018-06-23T04:31:20.548Z,2132.00
2018-06-23T04:32:20.529Z,2224.00
2018-06-23T04:33:20.503Z,2216.00
2018-06-23T04:34:20.461Z,2212.00
2018-06-23T04:35:20.448Z,2140.00
2018-06-23T04:36:20.424Z,2196.00
2018-06-23T04:37:20.428Z,2352.00
2018-06-23T04:38:20.393Z,2400.00
2018-06-23T04:39:20.377Z,2428.00
2018-06-23T04:40:20.376Z,2448.00
2018-06-23T04:41:20.332Z,2436.00
2018-06-23T04:42:20.360Z,2468.00
2018-06-23T04:43:20.288Z,2416.00
2018-06-23T04:44:20.275Z,2424.00
2018-06-23T04:45:20.274Z,2504.00
2018-06-23T04:46:20.254Z,2528.00
2018-06-23T04:47:20.220Z,2552.00
2018-06-23T04:48:20.191Z,2572.00
2018-06-23T04:49:20.182Z,2600.00
2018-06-23T04:50:20.209Z,2632.00
2018-06-23T04:51:20.134Z,2668.00
2018-06-23T04:52:20.160Z,2696.00
2018-06-23T04:53:20.194Z,2708.00
2018-06-23T04:54:20.111Z,2720.00
2018-06-23T04:55:20.149Z,2736.00
2018-06-23T04:56:20.070Z,2752.00
2018-06-23T04:57:20.024Z,2756.00
2018-06-23T04:58:20.063Z,2772.00
2018-06-23T04:59:19.977Z,2792.00
2018-06-23T05:00:19.967Z,2808.00
2018-06-23T05:01:19.935Z,2812.00
2018-06-23T05:02:19.932Z,2824.00
2018-06-23T05:03:19.900Z,2840.00
2018-06-23T05:04:19.899Z,2820.00
2018-06-23T05:05:19.901Z,2884.00
2018-06-23T05:06:19.875Z,2916.00
2018-06-23T05:07:19.823Z,2944.00
2018-06-23T05:08:19.811Z,2968.00
2018-06-23T05:09:19.789Z,3012.00
2018-06-23T05:10:19.801Z,3060.00
2018-06-23T05:11:19.753Z,3140.00
2018-06-23T05:12:19.750Z,3236.00
2018-06-23T05:13:19.759Z,3336.00
2018-06-23T05:14:19.699Z,3472.00
2018-06-23T05:15:19.718Z,3664.00
2018-06-23T05:16:19.735Z,4020.00
2018-06-23T05:17:19.639Z,4396.00
2018-06-23T05:18:19.623Z,4652.00
2018-06-23T05:19:19.651Z,4836.00
2018-06-23T05:20:19.705Z,4756.00
2018-06-23T05:21:19.563Z,4748.00
2018-06-23T05:22:19.561Z,4852.00
2018-06-23T05:23:19.555Z,5076.00
2018-06-23T05:24:19.530Z,5288.00
2018-06-23T05:25:19.496Z,5568.00
2018-06-23T05:26:19.477Z,5924.00
2018-06-23T05:27:19.500Z,6372.00
2018-06-23T05:28:19.469Z,6920.00
2018-06-23T05:29:19.417Z,7352.00
2018-06-23T05:30:19.436Z,7532.00
2018-06-23T05:31:19.382Z,7896.00
2018-06-23T05:32:19.369Z,7820.00
2018-06-23T05:33:19.372Z,7372.00
2018-06-23T05:34:19.327Z,6784.00
2018-06-23T05:35:19.311Z,6200.00
2018-06-23T05:36:19.290Z,5772.00
2018-06-23T05:37:19.334Z,5664.00
2018-06-23T05:38:19.331Z,5620.00
2018-06-23T05:39:19.344Z,5568.00
2018-06-23T05:40:19.236Z,5948.00
2018-06-23T05:41:19.401Z,6336.00
2018-06-23T05:42:19.305Z,6352.00
2018-06-23T05:43:19.327Z,6540.00
2018-06-23T05:44:19.299Z,6972.00
2018-06-23T05:45:19.340Z,6752.00
2018-06-23T05:46:19.121Z,6852.00
2018-06-23T05:47:19.127Z,7012.00
2018-06-23T05:48:19.137Z,7532.00
2018-06-23T05:49:19.199Z,7936.00
2018-06-23T05:50:19.146Z,8260.00
2018-06-23T05:51:19.202Z,8600.00
2018-06-23T05:52:19.137Z,8932.00
2018-06-23T05:53:19.117Z,9144.00
2018-06-23T05:54:18.992Z,8996.00
2018-06-23T05:55:18.986Z,8832.00
2018-06-23T05:56:18.964Z,8584.00
2018-06-23T05:57:18.935Z,8356.00
2018-06-23T05:58:18.934Z,8520.00
2018-06-23T05:59:18.906Z,8732.00
2018-06-23T06:00:18.909Z,8888.00
2018-06-23T06:01:18.927Z,8980.00
2018-06-23T06:02:18.864Z,9148.00
2018-06-23T06:03:18.870Z,9448.00
2018-06-23T06:04:18.830Z,9568.00
2018-06-23T06:05:18.815Z,9688.00
2018-06-23T06:06:18.822Z,9824.00
2018-06-23T06:07:18.791Z,9980.00
2018-06-23T06:08:18.776Z,10272.00
2018-06-23T06:09:18.757Z,10284.00
2018-06-23T06:10:18.907Z,10452.00
2018-06-23T06:11:18.719Z,11056.00
2018-06-23T06:12:18.754Z,10860.00
2018-06-23T06:13:18.702Z,10560.00
2018-06-23T06:14:18.690Z,10096.00
2018-06-23T06:15:18.658Z,10076.00
2018-06-23T06:16:18.654Z,10936.00
2018-06-23T06:17:18.632Z,10664.00
2018-06-23T06:18:18.638Z,9564.00
2018-06-23T06:19:18.594Z,10084.00
2018-06-23T06:20:18.578Z,11744.00
2018-06-23T06:21:18.600Z,13128.00
2018-06-23T06:22:18.844Z,13996.00
2018-06-23T06:23:18.546Z,13804.00
2018-06-23T06:24:18.548Z,13584.00
2018-06-23T06:25:18.513Z,12552.00
2018-06-23T06:26:18.488Z,12236.00
2018-06-23T06:27:18.478Z,12576.00
2018-06-23T06:28:18.482Z,13136.00
2018-06-23T06:29:18.450Z,13676.00
2018-06-23T06:30:18.448Z,14188.00
2018-06-23T06:31:18.418Z,16616.00
2018-06-23T06:32:18.424Z,15872.00
2018-06-23T06:33:18.411Z,14992.00
2018-06-23T06:34:18.373Z,14300.00
2018-06-23T06:35:18.392Z,11784.00
2018-06-23T06:36:18.350Z,12056.00
2018-06-23T06:37:18.367Z,13520.00
2018-06-23T06:38:18.358Z,15192.00
2018-06-23T06:39:18.306Z,14016.00
2018-06-23T06:40:18.306Z,12892.00
2018-06-23T06:41:18.309Z,10912.00
2018-06-23T06:42:18.296Z,9992.00
2018-06-23T06:43:18.258Z,9688.00
2018-06-23T06:44:18.251Z,9056.00
2018-06-23T06:45:18.231Z,9176.00
2018-06-23T06:46:18.222Z,8672.00
2018-06-23T06:47:18.212Z,8880.00
2018-06-23T06:48:18.193Z,8804.00
2018-06-23T06:49:18.180Z,9560.00
2018-06-23T06:50:18.170Z,10888.00
2018-06-23T06:51:18.178Z,11548.00
2018-06-23T06:52:18.154Z,11344.00
2018-06-23T06:53:18.129Z,11160.00
2018-06-23T06:54:18.145Z,11316.00
2018-06-23T06:55:18.097Z,11404.00
2018-06-23T06:56:18.081Z,12500.00
2018-06-23T06:57:18.074Z,14088.00
2018-06-23T06:58:18.052Z,14604.00
2018-06-23T06:59:18.044Z,14112.00
2018-06-23T07:00:18.023Z,14108.00
2018-06-23T07:01:18.012Z,14360.00
2018-06-23T07:02:18.003Z,14472.00
2018-06-23T07:03:17.989Z,13112.00
2018-06-23T07:04:17.976Z,9880.00
2018-06-23T07:05:17.961Z,8176.00
2018-06-23T07:06:17.955Z,8088.00
2018-06-23T07:07:17.929Z,8332.00
2018-06-23T07:08:17.913Z,8788.00
2018-06-23T07:09:17.906Z,9196.00
2018-06-23T07:10:17.892Z,9804.00
2018-06-23T07:11:17.875Z,11680.00
2018-06-23T07:12:17.862Z,15448.00
2018-06-23T07:13:17.849Z,18560.00
2018-06-23T07:14:17.834Z,17248.00
2018-06-23T07:15:17.824Z,15680.00
2018-06-23T07:16:17.811Z,15944.00
2018-06-23T07:17:17.801Z,17728.00
2018-06-23T07:18:17.779Z,19328.00
2018-06-23T07:19:17.769Z,17120.00
2018-06-23T07:20:17.753Z,13540.00
2018-06-23T07:21:17.748Z,12772.00
2018-06-23T07:22:17.728Z,11404.00
2018-06-23T07:23:17.721Z,9024.00
2018-06-23T07:24:17.712Z,8880.00
2018-06-23T07:25:17.694Z,10284.00
2018-06-23T07:26:17.686Z,10640.00
2018-06-23T07:27:17.673Z,11212.00
2018-06-23T07:28:17.661Z,12404.00
2018-06-23T07:29:17.646Z,12672.00
2018-06-23T07:30:17.633Z,13776.00
2018-06-23T07:31:17.619Z,14800.00
2018-06-23T07:32:17.609Z,14576.00
2018-06-23T07:33:17.597Z,14636.00
2018-06-23T07:34:17.663Z,13384.00
2018-06-23T07:35:17.735Z,13124.00
2018-06-23T07:36:17.603Z,11408.00
2018-06-23T07:37:17.585Z,11172.00
2018-06-23T07:38:17.533Z,11016.00
2018-06-23T07:39:17.520Z,13144.00
2018-06-23T07:40:17.507Z,14252.00
2018-06-23T07:41:17.492Z,15204.00
2018-06-23T07:42:17.485Z,16404.00
2018-06-23T07:43:17.469Z,17096.00
2018-06-23T07:44:17.456Z,16520.00
2018-06-23T07:45:17.441Z,16180.00
2018-06-23T07:46:17.431Z,13484.00
2018-06-23T07:47:17.430Z,13428.00
2018-06-23T07:48:17.409Z,12852.00
2018-06-23T07:49:17.392Z,12588.00
2018-06-23T07:50:17.382Z,12104.00
2018-06-23T07:51:17.367Z,11204.00
2018-06-23T07:52:17.361Z,10844.00
2018-06-23T07:53:17.345Z,11760.00
2018-06-23T07:54:17.332Z,12708.00
2018-06-23T07:55:17.322Z,14724.00
2018-06-23T07:56:17.345Z,18336.00
2018-06-23T07:57:17.300Z,20960.00
2018-06-23T07:58:17.292Z,21088.00
2018-06-23T07:59:17.277Z,20960.00
2018-06-23T08:00:17.271Z,20544.00
2018-06-23T08:01:17.255Z,17120.00
2018-06-23T08:02:17.243Z,12552.00
2018-06-23T08:03:17.234Z,10208.00
2018-06-23T08:04:17.230Z,9092.00
2018-06-23T08:05:17.214Z,8988.00
2018-06-23T08:06:17.202Z,9548.00
2018-06-23T08:07:17.196Z,10324.00
2018-06-23T08:08:17.186Z,11592.00
2018-06-23T08:09:17.176Z,13008.00
2018-06-23T08:10:17.166Z,14512.00
2018-06-23T08:11:17.154Z,15380.00
2018-06-23T08:12:17.141Z,14504.00
2018-06-23T08:13:17.131Z,16380.00
2018-06-23T08:14:17.125Z,19264.00
2018-06-23T08:15:17.109Z,20576.00
2018-06-23T08:16:17.112Z,17824.00
2018-06-23T08:17:17.099Z,17044.00
2018-06-23T08:18:17.083Z,18240.00
2018-06-23T08:19:17.074Z,17536.00
2018-06-23T08:20:17.080Z,15716.00
2018-06-23T08:21:17.065Z,15096.00
2018-06-23T08:22:17.048Z,17248.00
2018-06-23T08:23:17.041Z,19328.00
2018-06-23T08:24:17.034Z,20192.00
2018-06-23T08:25:17.021Z,18848.00
2018-06-23T08:26:17.022Z,19296.00
2018-06-23T08:27:17.002Z,18304.00
2018-06-23T08:28:16.990Z,18240.00
2018-06-23T08:29:16.989Z,17664.00
2018-06-23T08:30:16.976Z,14420.00
2018-06-23T08:31:16.967Z,13792.00
2018-06-23T08:32:16.960Z,13428.00
2018-06-23T08:33:16.951Z,14092.00
2018-06-23T08:34:16.932Z,12692.00
2018-06-23T08:35:16.927Z,11980.00
2018-06-23T08:36:16.912Z,12840.00
2018-06-23T08:37:16.906Z,12232.00
2018-06-23T08:38:16.890Z,11344.00
2018-06-23T08:39:16.891Z,14324.00
2018-06-23T08:40:16.878Z,15620.00
2018-06-23T08:41:16.865Z,18208.00
2018-06-23T08:42:16.859Z,21248.00
2018-06-23T08:43:16.849Z,22688.00
2018-06-23T08:44:16.834Z,23840.00
2018-06-23T08:45:16.824Z,24032.00
2018-06-23T08:46:16.815Z,25216.00
2018-06-23T08:47:16.804Z,24992.00
2018-06-23T08:48:16.799Z,24992.00
2018-06-23T08:49:16.834Z,24928.00
2018-06-23T08:50:16.773Z,22016.00
2018-06-23T08:51:16.770Z,19136.00
2018-06-23T08:52:16.753Z,15700.00
2018-06-23T08:53:16.747Z,13484.00
2018-06-23T08:54:16.731Z,11188.00
2018-06-23T08:55:16.735Z,9556.00
2018-06-23T08:56:16.718Z,9984.00
2018-06-23T08:57:16.716Z,14352.00
2018-06-23T08:58:16.715Z,13868.00
2018-06-23T08:59:16.693Z,13752.00
2018-06-23T09:00:16.680Z,14032.00
2018-06-23T09:01:16.674Z,14436.00
2018-06-23T09:02:16.680Z,14800.00
2018-06-23T09:03:16.651Z,14984.00
2018-06-23T09:04:16.648Z,15228.00
2018-06-23T09:05:16.670Z,15548.00
2018-06-23T09:06:16.619Z,16360.00
2018-06-23T09:07:16.612Z,17156.00
2018-06-23T09:08:16.602Z,18496.00
2018-06-23T09:09:16.599Z,19456.00
2018-06-23T09:10:16.583Z,21696.00
2018-06-23T09:11:16.570Z,28192.00
2018-06-23T09:12:16.573Z,62944.00
2018-06-23T09:13:16.558Z,93024.00
2018-06-23T09:14:16.554Z,108064.00
2018-06-23T09:15:16.542Z,38080.00
2018-06-23T09:16:16.526Z,42240.00
2018-06-23T09:17:16.521Z,52000.00
2018-06-23T09:18:16.513Z,82976.00
2018-06-23T09:19:16.501Z,83872.00
2018-06-23T09:20:16.495Z,63904.00
2018-06-23T09:21:16.484Z,80512.00
2018-06-23T09:22:16.478Z,75136.00
2018-06-23T09:23:16.472Z,66688.00
2018-06-23T09:24:16.468Z,50848.00
2018-06-23T09:25:16.492Z,35520.00
2018-06-23T09:26:16.441Z,38912.00
2018-06-23T09:27:16.438Z,51392.00
2018-06-23T09:28:16.432Z,52992.00
2018-06-23T09:29:16.428Z,66496.00
2018-06-23T09:30:16.412Z,49280.00
2018-06-23T09:31:16.409Z,40192.00
2018-06-23T09:32:16.400Z,44768.00
2018-06-23T09:33:16.392Z,70688.00
2018-06-23T09:34:16.383Z,123680.00
2018-06-23T09:35:16.377Z,121632.00
2018-06-23T09:36:16.390Z,122304.00
2018-06-23T09:37:16.362Z,124000.00
2018-06-23T09:38:16.355Z,123872.00
2018-06-23T09:39:16.353Z,123296.00
2018-06-23T09:40:16.339Z,119616.00
2018-06-23T09:41:16.333Z,118784.00
2018-06-23T09:42:16.323Z,121600.00
2018-06-23T09:43:16.317Z,128544.00
2018-06-23T09:44:16.307Z,133056.00
2018-06-23T09:45:16.307Z,135008.00
2018-06-23T09:46:16.301Z,136736.00
2018-06-23T09:47:16.285Z,133024.00
2018-06-23T09:48:16.285Z,65856.00
2018-06-23T09:49:16.274Z,55232.00
2018-06-23T09:50:16.272Z,54496.00
2018-06-23T09:51:16.262Z,60096.00
2018-06-23T09:52:16.256Z,68032.00
2018-06-23T09:53:16.246Z,71392.00
2018-06-23T09:54:16.289Z,58592.00
2018-06-23T09:55:16.238Z,98656.00
2018-06-23T09:56:16.227Z,137760.00
2018-06-23T09:57:16.224Z,131584.00
2018-06-23T09:58:16.217Z,129120.00
2018-06-23T09:59:16.214Z,126848.00
2018-06-23T10:00:16.198Z,106432.00
2018-06-23T10:01:16.217Z,82688.00
2018-06-23T10:02:16.185Z,66272.00
2018-06-23T10:03:16.235Z,101632.00
2018-06-23T10:04:16.182Z,86944.00
2018-06-23T10:05:16.179Z,80320.00
2018-06-23T10:06:16.171Z,98656.00
2018-06-23T10:07:16.219Z,101792.00
2018-06-23T10:08:16.160Z,118368.00
2018-06-23T10:09:16.154Z,145760.00
2018-06-23T10:10:16.144Z,75712.00
2018-06-23T10:11:16.680Z,106848.00
2018-06-23T10:12:16.137Z,81408.00
2018-06-23T10:13:16.131Z,38432.00
2018-06-23T10:14:16.121Z,41856.00
2018-06-23T10:15:16.118Z,41120.00
2018-06-23T10:16:16.111Z,51840.00
2018-06-23T10:17:16.112Z,59360.00
2018-06-23T10:18:16.103Z,60288.00
2018-06-23T10:19:16.102Z,67648.00
2018-06-23T10:20:16.092Z,78080.00
2018-06-23T10:21:16.096Z,105472.00
2018-06-23T10:22:16.080Z,106528.00
2018-06-23T10:23:16.088Z,84032.00
2018-06-23T10:24:16.080Z,131072.00
2018-06-23T10:25:16.064Z,143232.00
2018-06-23T10:26:16.063Z,66912.00
2018-06-23T10:27:16.064Z,60736.00
2018-06-23T10:28:16.054Z,46240.00
2018-06-23T10:29:16.051Z,59072.00
2018-06-23T10:30:16.048Z,61088.00
2018-06-23T10:31:16.041Z,48160.00
2018-06-23T10:32:16.038Z,62688.00
2018-06-23T10:33:16.037Z,109344.00
2018-06-23T10:34:16.025Z,48000.00
2018-06-23T10:35:16.022Z,43264.00
2018-06-23T10:36:16.017Z,45152.00
2018-06-23T10:37:16.022Z,97824.00
2018-06-23T10:38:16.072Z,129856.00
2018-06-23T10:39:16.009Z,131456.00
2018-06-23T10:40:16.005Z,142176.00
2018-06-23T10:41:15.989Z,142304.00
2018-06-23T10:42:15.994Z,129728.00
2018-06-23T10:43:15.986Z,118976.00
2018-06-23T10:44:15.982Z,91840.00
2018-06-23T10:45:15.983Z,59776.00
2018-06-23T10:46:16.004Z,118432.00
2018-06-23T10:47:15.980Z,106560.00
2018-06-23T10:48:15.974Z,93376.00
2018-06-23T10:49:15.967Z,40352.00
2018-06-23T10:50:15.970Z,28640.00
2018-06-23T10:51:15.961Z,29792.00
2018-06-23T10:52:15.961Z,26144.00
2018-06-23T10:53:15.951Z,39552.00
2018-06-23T10:54:15.944Z,72064.00
2018-06-23T10:55:15.948Z,140192.00
2018-06-23T10:56:15.943Z,33216.00
2018-06-23T10:57:15.938Z,25408.00
2018-06-23T10:58:15.936Z,30304.00
2018-06-23T10:59:15.935Z,53856.00
2018-06-23T11:00:15.920Z,143200.00
2018-06-23T11:01:15.933Z,77856.00
2018-06-23T11:02:15.919Z,134336.00
2018-06-23T11:03:15.913Z,131744.00
2018-06-23T11:04:15.906Z,135456.00
2018-06-23T11:05:15.901Z,138592.00
2018-06-23T11:06:15.897Z,145184.00
2018-06-23T11:07:15.894Z,106432.00
2018-06-23T11:08:15.891Z,106304.00
2018-06-23T11:09:15.891Z,22016.00
2018-06-23T11:10:15.889Z,18880.00
2018-06-23T11:11:15.888Z,17952.00
2018-06-23T11:12:15.895Z,17856.00
2018-06-23T11:13:15.881Z,19232.00
2018-06-23T11:14:15.893Z,19136.00
2018-06-23T11:15:15.869Z,18272.00
2018-06-23T11:16:15.862Z,18272.00
2018-06-23T11:17:15.871Z,21152.00
2018-06-23T11:18:15.859Z,25472.00
2018-06-23T11:19:15.855Z,149248.00
2018-06-23T11:20:15.853Z,150208.00
2018-06-23T11:21:15.839Z,51008.00
2018-06-23T11:22:15.842Z,147168.00
2018-06-23T11:23:15.832Z,53120.00
2018-06-23T11:24:15.896Z,75168.00
2018-06-23T11:25:15.826Z,89888.00
2018-06-23T11:26:15.820Z,105728.00
2018-06-23T11:27:15.826Z,42112.00
2018-06-23T11:28:15.816Z,36416.00
2018-06-23T11:29:15.813Z,30592.00
2018-06-23T11:30:15.819Z,48736.00
2018-06-23T11:31:15.810Z,50624.00
2018-06-23T11:32:15.853Z,20640.00
2018-06-23T11:33:15.807Z,17792.00
2018-06-23T11:34:15.804Z,17472.00
2018-06-23T11:35:15.804Z,18208.00
2018-06-23T11:36:15.798Z,20288.00
2018-06-23T11:37:15.785Z,20800.00
2018-06-23T11:38:15.781Z,21536.00
2018-06-23T11:39:15.778Z,22368.00
2018-06-23T11:40:15.777Z,22784.00
2018-06-23T11:41:15.776Z,23648.00
2018-06-23T11:42:15.762Z,24224.00
2018-06-23T11:43:15.755Z,25056.00
2018-06-23T11:44:15.765Z,30432.00
2018-06-23T11:45:15.749Z,28704.00
2018-06-23T11:46:15.746Z,34016.00
2018-06-23T11:47:15.741Z,35872.00
2018-06-23T11:48:15.733Z,95616.00
2018-06-23T11:49:15.730Z,104992.00
2018-06-23T11:50:15.717Z,37952.00
2018-06-23T11:51:15.717Z,35776.00
2018-06-23T11:52:15.843Z,77696.00
2018-06-23T11:53:15.701Z,88416.00
2018-06-23T11:54:15.698Z,132064.00
2018-06-23T11:55:15.695Z,123520.00
2018-06-23T11:56:15.691Z,130816.00
2018-06-23T11:57:15.701Z,49984.00
2018-06-23T11:58:15.679Z,29152.00
2018-06-23T11:59:15.676Z,29792.00
2018-06-23T12:00:15.676Z,31360.00
2018-06-23T12:01:15.676Z,27648.00
2018-06-23T12:02:15.669Z,26784.00
2018-06-23T12:03:15.724Z,27456.00
2018-06-23T12:04:15.666Z,28096.00
2018-06-23T12:05:15.660Z,28576.00
2018-06-23T12:06:15.650Z,28096.00
2018-06-23T12:07:15.647Z,25376.00
2018-06-23T12:08:15.645Z,24864.00
2018-06-23T12:09:15.661Z,24992.00
2018-06-23T12:10:15.639Z,26720.00
2018-06-23T12:11:15.632Z,30720.00